createdAt,value
2019-03-12T00:00:17.290Z,4.35
2019-03-12T00:01:17.244Z,4.31
2019-03-12T00:02:17.201Z,4.26
2019-03-12T00:03:17.157Z,4.26
2019-03-12T00:04:17.115Z,4.38
2019-03-12T00:05:17.073Z,4.35
2019-03-12T00:06:17.030Z,4.28
2019-03-12T00:07:16.988Z,4.35
2019-03-12T00:08:16.949Z,4.32
2019-03-12T00:09:16.898Z,4.32
2019-03-12T00:10:16.863Z,4.32
2019-03-12T00:11:16.816Z,4.32
2019-03-12T00:12:16.776Z,4.35
2019-03-12T00:13:16.727Z,4.28
2019-03-12T00:14:16.689Z,4.35
2019-03-12T00:15:16.653Z,4.35
2019-03-12T00:16:16.597Z,4.35
2019-03-12T00:17:16.561Z,4.34
2019-03-12T00:18:16.517Z,4.30
2019-03-12T00:19:16.473Z,4.28
2019-03-12T00:20:16.431Z,4.22
2019-03-12T00:21:16.382Z,4.37
2019-03-12T00:22:16.342Z,4.24
2019-03-12T00:23:16.300Z,4.22
2019-03-12T00:24:16.252Z,4.23
2019-03-12T00:25:16.214Z,4.22
2019-03-12T00:26:16.170Z,4.20
2019-03-12T00:27:16.124Z,4.19
2019-03-12T00:28:16.080Z,4.14
2019-03-12T00:29:16.043Z,4.19
2019-03-12T00:30:16.049Z,4.14
2019-03-12T00:31:15.954Z,4.12
2019-03-12T00:32:15.913Z,4.17
2019-03-12T00:33:15.865Z,4.19
2019-03-12T00:34:15.824Z,4.17
2019-03-12T00:35:15.782Z,4.19
2019-03-12T00:36:15.740Z,4.17
2019-03-12T00:37:15.701Z,4.23
2019-03-12T00:38:15.653Z,4.17
2019-03-12T00:39:15.610Z,4.19
2019-03-12T00:40:15.569Z,4.13
2019-03-12T00:41:15.520Z,4.16
2019-03-12T00:42:15.478Z,4.28
2019-03-12T00:43:15.437Z,4.26
2019-03-12T00:44:15.401Z,4.20
2019-03-12T00:45:15.351Z,4.20
2019-03-12T00:46:15.308Z,4.24
2019-03-12T00:47:15.262Z,4.26
2019-03-12T00:48:15.218Z,4.34
2019-03-12T00:49:15.178Z,4.31
2019-03-12T00:50:15.137Z,4.24
2019-03-12T00:51:15.098Z,4.30
2019-03-12T00:52:15.049Z,4.24
2019-03-12T00:53:15.004Z,4.31
2019-03-12T00:54:14.962Z,4.28
2019-03-12T00:55:15.008Z,4.28
2019-03-12T00:56:14.879Z,4.24
2019-03-12T00:57:14.833Z,4.26
2019-03-12T00:58:14.788Z,4.37
2019-03-12T00:59:14.748Z,4.28
2019-03-12T01:00:14.702Z,4.32
2019-03-12T01:01:14.664Z,4.37
2019-03-12T01:02:14.621Z,4.31
2019-03-12T01:03:14.582Z,4.38
2019-03-12T01:04:14.535Z,4.30
2019-03-12T01:05:14.489Z,4.28
2019-03-12T01:06:14.444Z,4.24
2019-03-12T01:07:14.401Z,4.31
2019-03-12T01:08:14.362Z,4.31
2019-03-12T01:09:14.319Z,4.26
2019-03-12T01:10:14.287Z,4.23
2019-03-12T01:11:14.230Z,4.30
2019-03-12T01:12:14.184Z,4.28
2019-03-12T01:13:14.143Z,4.19
2019-03-12T01:14:14.104Z,4.16
2019-03-12T01:15:14.062Z,4.22
2019-03-12T01:16:14.029Z,4.14
2019-03-12T01:17:13.972Z,4.24
2019-03-12T01:18:14.073Z,4.10
2019-03-12T01:19:13.882Z,4.19
2019-03-12T01:20:13.846Z,4.14
2019-03-12T01:21:13.798Z,4.16
2019-03-12T01:22:13.758Z,4.10
2019-03-12T01:23:13.717Z,4.17
2019-03-12T01:24:13.668Z,4.14
2019-03-12T01:25:13.633Z,4.14
2019-03-12T01:26:13.585Z,4.19
2019-03-12T01:27:13.544Z,4.14
2019-03-12T01:28:13.501Z,4.12
2019-03-12T01:29:13.456Z,4.08
2019-03-12T01:30:13.412Z,4.13
2019-03-12T01:31:13.365Z,3.98
2019-03-12T01:32:13.328Z,4.08
2019-03-12T01:33:13.281Z,4.05
2019-03-12T01:34:13.240Z,4.01
2019-03-12T01:35:13.199Z,4.02
2019-03-12T01:36:21.797Z,3.92
2019-03-12T01:38:26.589Z,3.92
2019-03-12T01:39:17.499Z,3.88
2019-03-12T01:40:17.450Z,3.86
2019-03-12T01:41:26.054Z,3.92
2019-03-12T01:43:19.832Z,3.84
2019-03-12T01:44:10.669Z,3.88
2019-03-12T01:45:19.265Z,3.83
2019-03-12T01:47:15.000Z,3.91
2019-03-12T01:48:14.957Z,3.83
2019-03-12T01:49:14.916Z,3.86
2019-03-12T01:50:14.867Z,3.76
2019-03-12T01:51:14.827Z,3.77
2019-03-12T01:52:14.784Z,3.83
2019-03-12T01:53:14.742Z,3.86
2019-03-12T01:54:14.699Z,3.70
2019-03-12T01:55:14.717Z,3.81
2019-03-12T01:56:14.609Z,3.77
2019-03-12T01:57:14.565Z,3.76
2019-03-12T01:58:14.757Z,3.77
2019-03-12T01:59:14.480Z,3.69
2019-03-12T02:00:14.439Z,3.70
2019-03-12T02:01:14.398Z,3.74
2019-03-12T02:02:14.353Z,3.66
2019-03-12T02:03:14.308Z,3.66
2019-03-12T02:04:14.267Z,3.73
2019-03-12T02:05:14.217Z,3.78
2019-03-12T02:06:14.180Z,3.74
2019-03-12T02:07:14.135Z,3.74
2019-03-12T02:08:14.091Z,3.81
2019-03-12T02:09:14.044Z,3.60
2019-03-12T02:10:14.003Z,3.69
2019-03-12T02:11:13.961Z,3.70
2019-03-12T02:12:13.927Z,3.76
2019-03-12T02:13:13.877Z,3.78
2019-03-12T02:14:13.839Z,3.66
2019-03-12T02:15:13.793Z,3.73
2019-03-12T02:16:13.750Z,3.70
2019-03-12T02:17:13.703Z,3.70
2019-03-12T02:18:13.655Z,3.73
2019-03-12T02:19:13.614Z,3.78
2019-03-12T02:20:13.575Z,3.86
2019-03-12T02:21:13.531Z,3.78
2019-03-12T02:22:13.487Z,3.83
2019-03-12T02:23:13.445Z,3.81
2019-03-12T02:24:13.401Z,3.77
2019-03-12T02:25:13.360Z,3.81
2019-03-12T02:26:13.316Z,3.84
2019-03-12T02:27:13.274Z,3.83
2019-03-12T02:28:13.227Z,3.77
2019-03-12T02:29:13.184Z,3.73
2019-03-12T02:30:13.141Z,3.77
2019-03-12T02:31:13.135Z,3.66
2019-03-12T02:32:13.061Z,3.68
2019-03-12T02:33:13.015Z,3.74
2019-03-12T02:34:12.980Z,3.66
2019-03-12T02:35:12.934Z,3.59
2019-03-12T02:36:12.883Z,3.59
2019-03-12T02:37:12.839Z,3.59
2019-03-12T02:38:12.797Z,3.59
2019-03-12T02:39:12.752Z,3.63
2019-03-12T02:40:12.710Z,3.47
2019-03-12T02:41:12.663Z,3.47
2019-03-12T02:42:12.882Z,3.45
2019-03-12T02:43:12.582Z,3.55
2019-03-12T02:44:12.542Z,3.48
2019-03-12T02:45:12.502Z,3.50
2019-03-12T02:46:12.454Z,3.51
2019-03-12T02:47:12.431Z,3.59
2019-03-12T02:48:12.363Z,3.60
2019-03-12T02:49:12.318Z,3.60
2019-03-12T02:50:12.274Z,3.60
2019-03-12T02:51:12.233Z,3.76
2019-03-12T02:52:12.192Z,3.77
2019-03-12T02:53:12.152Z,3.66
2019-03-12T02:54:12.117Z,3.68
2019-03-12T02:55:12.101Z,3.70
2019-03-12T02:56:12.019Z,3.76
2019-03-12T02:57:11.980Z,3.70
2019-03-12T02:58:11.939Z,3.70
2019-03-12T02:59:11.907Z,3.68
2019-03-12T03:00:11.844Z,3.68
2019-03-12T03:01:11.797Z,3.77
2019-03-12T03:02:11.761Z,3.78
2019-03-12T03:03:11.713Z,3.78
2019-03-12T03:04:11.684Z,3.80
2019-03-12T03:05:11.633Z,3.78
2019-03-12T03:06:11.586Z,3.84
2019-03-12T03:07:11.546Z,3.86
2019-03-12T03:08:11.498Z,3.96
2019-03-12T03:09:11.456Z,3.92
2019-03-12T03:10:11.416Z,3.98
2019-03-12T03:11:11.373Z,3.94
2019-03-12T03:12:11.325Z,3.88
2019-03-12T03:13:11.284Z,3.91
2019-03-12T03:14:11.241Z,4.01
2019-03-12T03:15:11.197Z,3.95
2019-03-12T03:16:11.152Z,3.95
2019-03-12T03:17:11.110Z,3.96
2019-03-12T03:18:11.080Z,3.96
2019-03-12T03:19:11.025Z,4.01
2019-03-12T03:20:10.998Z,3.91
2019-03-12T03:21:10.940Z,3.99
2019-03-12T03:22:10.891Z,3.96
2019-03-12T03:23:10.849Z,3.95
2019-03-12T03:24:10.807Z,3.98
2019-03-12T03:25:10.771Z,3.99
2019-03-12T03:26:10.717Z,4.02
2019-03-12T03:27:10.675Z,3.96
2019-03-12T03:28:10.634Z,3.95
2019-03-12T03:29:10.601Z,3.94
2019-03-12T03:43:53.991Z,4.08
2019-03-12T03:44:53.940Z,3.99
2019-03-12T03:45:53.881Z,3.94
2019-03-12T03:46:53.831Z,4.02
2019-03-12T03:47:53.782Z,4.10
2019-03-12T03:48:53.733Z,4.16
2019-03-12T03:49:53.688Z,4.20
2019-03-12T03:50:53.648Z,4.12
2019-03-12T03:51:53.604Z,4.22
2019-03-12T03:52:53.560Z,4.19
2019-03-12T03:53:53.513Z,4.19
2019-03-12T03:54:53.468Z,4.14
2019-03-12T03:55:53.429Z,4.14
2019-03-12T03:56:53.385Z,4.12
2019-03-12T03:57:53.353Z,4.19
2019-03-12T03:58:53.295Z,4.26
2019-03-12T03:59:53.260Z,4.30
2019-03-12T04:00:53.209Z,4.13
2019-03-12T04:01:53.165Z,4.23
2019-03-12T04:02:53.119Z,4.28
2019-03-12T04:03:53.075Z,4.32
2019-03-12T04:04:53.035Z,4.24
2019-03-12T04:05:52.991Z,4.28
2019-03-12T04:06:52.946Z,4.30
2019-03-12T04:07:52.902Z,4.34
2019-03-12T04:08:52.859Z,4.30
2019-03-12T04:09:52.822Z,4.37
2019-03-12T04:10:52.777Z,4.37
2019-03-12T04:11:52.726Z,4.24
2019-03-12T04:12:52.681Z,4.31
2019-03-12T04:13:52.635Z,4.26
2019-03-12T04:14:52.595Z,4.32
2019-03-12T04:15:52.566Z,4.20
2019-03-12T04:16:52.516Z,4.22
2019-03-12T04:17:52.470Z,4.17
2019-03-12T04:18:52.425Z,4.20
2019-03-12T04:19:52.379Z,4.14
2019-03-12T04:20:52.337Z,4.17
2019-03-12T04:21:52.297Z,4.22
2019-03-12T04:22:52.250Z,4.14
2019-03-12T04:23:52.207Z,4.17
2019-03-12T04:24:52.167Z,4.17
2019-03-12T04:25:52.123Z,4.04
2019-03-12T04:26:52.076Z,4.19
2019-03-12T04:27:52.035Z,4.12
2019-03-12T04:28:51.995Z,4.06
2019-03-12T04:29:51.950Z,4.17
2019-03-12T04:30:51.911Z,4.16
2019-03-12T04:31:51.859Z,4.10
2019-03-12T04:32:51.823Z,4.05
2019-03-12T04:33:51.772Z,4.13
2019-03-12T04:34:51.730Z,4.04
2019-03-12T04:35:51.697Z,3.98
2019-03-12T04:36:51.652Z,4.01
2019-03-12T04:37:51.604Z,4.02
2019-03-12T04:38:51.559Z,4.02
2019-03-12T04:39:51.528Z,3.96
2019-03-12T04:40:51.469Z,3.99
2019-03-12T04:41:51.433Z,3.99
2019-03-12T04:43:00.041Z,4.02
2019-03-12T04:44:55.775Z,3.96
2019-03-12T04:45:55.710Z,3.98
2019-03-12T04:46:55.671Z,3.98
2019-03-12T04:47:55.629Z,3.91
2019-03-12T04:48:55.584Z,3.96
2019-03-12T04:49:55.537Z,3.92
2019-03-12T04:50:55.491Z,3.88
2019-03-12T04:51:55.449Z,3.94
2019-03-12T04:52:55.403Z,3.94
2019-03-12T04:53:55.363Z,3.88
2019-03-12T04:54:55.319Z,3.99
2019-03-12T04:55:55.282Z,3.98
2019-03-12T04:56:55.232Z,3.95
2019-03-12T04:57:55.189Z,3.86
2019-03-12T04:58:55.147Z,3.94
2019-03-12T04:59:55.106Z,3.95
2019-03-12T05:00:55.065Z,3.91
2019-03-12T05:01:55.018Z,3.92
2019-03-12T05:02:54.972Z,3.95
2019-03-12T05:03:54.927Z,3.88
2019-03-12T05:04:54.884Z,3.91
2019-03-12T05:05:54.946Z,3.88
2019-03-12T05:06:54.801Z,3.88
2019-03-12T05:07:54.761Z,3.87
2019-03-12T05:08:54.717Z,3.91
2019-03-12T05:09:54.678Z,3.87
2019-03-12T05:10:54.629Z,3.87
2019-03-12T05:11:54.581Z,3.91
2019-03-12T05:12:54.557Z,3.94
2019-03-12T05:13:54.500Z,4.01
2019-03-12T05:14:54.457Z,3.92
2019-03-12T05:15:54.409Z,3.88
2019-03-12T05:16:54.366Z,3.88
2019-03-12T05:17:54.325Z,3.87
2019-03-12T05:18:54.285Z,3.88
2019-03-12T05:19:54.242Z,3.94
2019-03-12T05:20:54.200Z,3.94
2019-03-12T05:21:54.154Z,3.98
2019-03-12T05:22:54.108Z,4.05
2019-03-12T05:23:54.063Z,4.01
2019-03-12T05:24:54.020Z,3.98
2019-03-12T05:25:53.979Z,4.16
2019-03-12T05:26:53.938Z,4.14
2019-03-12T05:27:53.896Z,4.14
2019-03-12T05:28:53.853Z,4.19
2019-03-12T05:29:53.806Z,4.16
2019-03-12T05:30:53.766Z,4.19
2019-03-12T05:31:53.723Z,4.26
2019-03-12T05:32:53.682Z,4.24
2019-03-12T05:33:53.640Z,4.31
2019-03-12T05:34:53.590Z,4.24
2019-03-12T05:35:53.550Z,4.28
2019-03-12T05:36:53.502Z,4.28
2019-03-12T05:37:53.461Z,4.32
2019-03-12T05:38:53.419Z,4.26
2019-03-12T05:39:53.381Z,4.28
2019-03-12T05:40:53.335Z,4.30
2019-03-12T05:41:53.292Z,4.32
2019-03-12T05:42:53.245Z,4.28
2019-03-12T05:43:53.200Z,4.38
2019-03-12T05:44:53.167Z,4.42
2019-03-12T05:45:53.119Z,4.50
2019-03-12T05:46:53.072Z,4.50
2019-03-12T05:47:53.027Z,4.45
2019-03-12T05:48:52.984Z,4.52
2019-03-12T05:49:52.945Z,4.53
2019-03-12T05:50:52.901Z,4.53
2019-03-12T05:51:52.861Z,4.56
2019-03-12T05:52:52.816Z,4.50
2019-03-12T05:53:52.777Z,4.59
2019-03-12T05:54:52.726Z,4.66
2019-03-12T05:55:52.686Z,4.73
2019-03-12T05:56:52.643Z,4.56
2019-03-12T05:57:52.597Z,4.66
2019-03-12T05:58:52.559Z,4.62
2019-03-12T05:59:52.517Z,4.60
2019-03-12T06:00:52.469Z,4.67
2019-03-12T06:01:52.426Z,4.71
2019-03-12T06:02:52.390Z,4.73
2019-03-12T06:03:52.342Z,4.67
2019-03-12T06:04:52.300Z,4.62
2019-03-12T06:05:52.259Z,4.70
2019-03-12T06:06:52.209Z,4.68
2019-03-12T06:07:55.227Z,4.62
2019-03-12T06:08:52.127Z,4.73
2019-03-12T06:09:52.083Z,4.71
2019-03-12T06:10:52.044Z,4.71
2019-03-12T06:11:51.999Z,4.68
2019-03-12T06:12:51.957Z,4.73
2019-03-12T06:13:51.917Z,4.74
2019-03-12T06:14:51.866Z,4.75
2019-03-12T06:15:53.229Z,4.82
2019-03-12T06:16:51.785Z,4.77
2019-03-12T06:17:51.743Z,4.77
2019-03-12T06:18:51.697Z,4.70
2019-03-12T06:19:51.655Z,4.82
2019-03-12T06:20:51.611Z,4.71
2019-03-12T06:21:51.588Z,4.77
2019-03-12T06:22:51.528Z,4.87
2019-03-12T06:23:51.484Z,4.77
2019-03-12T06:24:51.440Z,4.87
2019-03-12T06:25:51.402Z,4.86
2019-03-12T06:26:51.351Z,4.82
2019-03-12T06:27:51.311Z,4.87
2019-03-12T06:28:51.268Z,4.87
2019-03-12T06:29:51.222Z,4.93
2019-03-12T06:30:51.187Z,4.96
2019-03-12T06:31:51.141Z,4.92
2019-03-12T06:32:51.101Z,4.90
2019-03-12T06:33:51.052Z,5.02
2019-03-12T06:34:51.014Z,5.00
2019-03-12T06:35:54.092Z,5.00
2019-03-12T06:36:50.927Z,5.07
2019-03-12T06:37:50.886Z,5.00
2019-03-12T06:38:50.837Z,5.08
2019-03-12T06:39:50.797Z,5.07
2019-03-12T06:40:50.753Z,5.17
2019-03-12T06:41:50.722Z,5.14
2019-03-12T06:42:50.673Z,5.18
2019-03-12T06:43:50.626Z,5.14
2019-03-12T06:44:50.586Z,5.17
2019-03-12T06:45:50.545Z,5.21
2019-03-12T06:46:50.495Z,5.21
2019-03-12T06:47:50.456Z,5.23
2019-03-12T06:48:50.414Z,5.23
2019-03-12T06:49:50.374Z,5.18
2019-03-12T06:50:50.324Z,5.30
2019-03-12T06:51:50.284Z,5.23
2019-03-12T06:52:50.247Z,5.33
2019-03-12T06:53:50.197Z,5.28
2019-03-12T06:54:50.169Z,5.30
2019-03-12T06:55:50.114Z,5.33
2019-03-12T06:56:50.073Z,5.35
2019-03-12T06:57:50.031Z,5.33
2019-03-12T06:58:49.987Z,5.41
2019-03-12T06:59:49.941Z,5.38
2019-03-12T07:00:49.899Z,5.38
2019-03-12T07:01:49.856Z,5.33
2019-03-12T07:02:49.818Z,5.38
2019-03-12T07:03:49.787Z,5.36
2019-03-12T07:04:49.728Z,5.41
2019-03-12T07:05:49.685Z,5.33
2019-03-12T07:06:49.678Z,5.36
2019-03-12T07:07:49.605Z,5.44
2019-03-12T07:08:49.560Z,5.47
2019-03-12T07:09:49.523Z,5.50
2019-03-12T07:10:49.522Z,5.51
2019-03-12T07:11:49.430Z,5.46
2019-03-12T07:12:49.388Z,5.46
2019-03-12T07:13:49.352Z,5.39
2019-03-12T07:14:49.308Z,5.50
2019-03-12T07:15:49.262Z,5.44
2019-03-12T07:16:49.220Z,5.44
2019-03-12T07:17:49.181Z,5.46
2019-03-12T07:18:49.131Z,5.51
2019-03-12T07:19:49.097Z,5.44
2019-03-12T07:20:49.051Z,5.48
2019-03-12T07:21:49.011Z,5.48
2019-03-12T07:22:48.962Z,5.43
2019-03-12T07:23:48.920Z,5.48
2019-03-12T07:24:48.886Z,5.57
2019-03-12T07:25:50.902Z,5.59
2019-03-12T07:26:48.799Z,5.56
2019-03-12T07:27:48.752Z,5.53
2019-03-12T07:28:50.571Z,5.59
2019-03-12T07:29:48.690Z,5.57
2019-03-12T07:30:48.622Z,5.59
2019-03-12T07:31:48.581Z,5.59
2019-03-12T07:32:48.539Z,5.61
2019-03-12T07:33:48.494Z,5.62
2019-03-12T07:34:48.457Z,5.64
2019-03-12T07:35:48.413Z,5.68
2019-03-12T07:36:48.369Z,5.69
2019-03-12T07:37:48.325Z,5.72
2019-03-12T07:38:48.288Z,5.62
2019-03-12T07:39:48.243Z,5.64
2019-03-12T07:40:48.210Z,5.79
2019-03-12T07:41:48.163Z,5.65
2019-03-12T07:42:48.112Z,5.72
2019-03-12T07:43:48.073Z,5.69
2019-03-12T07:44:48.030Z,5.71
2019-03-12T07:45:47.986Z,5.79
2019-03-12T07:46:47.949Z,5.73
2019-03-12T07:47:47.906Z,5.76
2019-03-12T07:48:47.864Z,5.69
2019-03-12T07:49:47.822Z,5.80
2019-03-12T07:50:47.772Z,5.76
2019-03-12T07:51:47.734Z,5.79
2019-03-12T07:52:47.698Z,5.87
2019-03-12T07:53:58.844Z,5.84
2019-03-12T07:54:47.604Z,5.84
2019-03-12T07:55:47.563Z,5.84
2019-03-12T07:56:47.526Z,5.84
2019-03-12T07:57:47.478Z,5.90
2019-03-12T07:58:47.441Z,5.94
2019-03-12T07:59:47.397Z,5.86
2019-03-12T08:00:47.355Z,5.99
2019-03-12T08:01:47.316Z,5.90
2019-03-12T08:02:47.265Z,5.84
2019-03-12T08:03:47.225Z,5.87
2019-03-12T08:04:47.183Z,5.97
2019-03-12T08:05:47.140Z,5.98
2019-03-12T08:06:47.102Z,6.01
2019-03-12T08:07:47.061Z,5.98
2019-03-12T08:08:47.015Z,6.01
2019-03-12T08:09:46.971Z,5.97
2019-03-12T08:10:46.935Z,5.97
2019-03-12T08:11:46.891Z,6.09
2019-03-12T08:12:46.850Z,6.07
2019-03-12T08:13:46.808Z,6.05
2019-03-12T08:14:46.759Z,6.11
2019-03-12T08:15:46.719Z,6.14
2019-03-12T08:16:46.679Z,6.17
2019-03-12T08:17:46.636Z,6.12
2019-03-12T08:18:46.597Z,6.12
2019-03-12T08:19:46.555Z,6.08
2019-03-12T08:20:46.515Z,6.12
2019-03-12T08:21:49.547Z,6.17
2019-03-12T08:22:46.422Z,6.17
2019-03-12T08:23:46.382Z,6.12
2019-03-12T08:24:46.343Z,6.11
2019-03-12T08:25:46.302Z,6.16
2019-03-12T08:26:46.255Z,6.14
2019-03-12T08:27:46.214Z,6.20
2019-03-12T08:28:46.172Z,6.12
2019-03-12T08:29:46.135Z,6.12
2019-03-12T08:30:46.093Z,6.24
2019-03-12T08:31:46.049Z,6.19
2019-03-12T08:32:46.008Z,6.17
2019-03-12T08:33:50.646Z,6.14
2019-03-12T08:34:45.921Z,6.20
2019-03-12T08:35:45.878Z,6.11
2019-03-12T08:36:45.836Z,6.17
2019-03-12T08:37:45.793Z,6.17
2019-03-12T08:38:46.469Z,6.14
2019-03-12T08:39:45.712Z,6.11
2019-03-12T08:40:52.353Z,6.19
2019-03-12T08:41:45.624Z,6.28
2019-03-12T08:42:54.603Z,6.24
2019-03-12T08:43:45.545Z,6.16
2019-03-12T08:44:45.505Z,6.20
2019-03-12T08:45:48.486Z,6.27
2019-03-12T08:46:45.413Z,6.26
2019-03-12T08:47:45.374Z,6.20
2019-03-12T08:48:45.337Z,6.30
2019-03-12T08:49:45.290Z,6.30
2019-03-12T08:50:45.255Z,6.39
2019-03-12T08:51:45.208Z,6.35
2019-03-12T08:52:45.166Z,6.28
2019-03-12T08:53:45.127Z,6.33
2019-03-12T08:54:54.282Z,6.36
2019-03-12T08:55:45.038Z,6.38
2019-03-12T08:56:45.000Z,6.44
2019-03-12T08:57:45.037Z,6.45
2019-03-12T08:58:44.912Z,6.51
2019-03-12T08:59:44.883Z,6.51
2019-03-12T09:00:44.840Z,6.52
2019-03-12T09:01:47.536Z,6.63
2019-03-12T09:02:44.753Z,6.63
2019-03-12T09:03:44.705Z,6.67
2019-03-12T09:04:44.670Z,6.67
2019-03-12T09:05:44.626Z,6.69
2019-03-12T09:06:44.578Z,6.67
2019-03-12T09:07:44.537Z,6.72
2019-03-12T09:08:44.495Z,6.67
2019-03-12T09:09:44.453Z,6.72
2019-03-12T09:10:44.416Z,6.74
2019-03-12T09:11:44.377Z,6.70
2019-03-12T09:12:44.328Z,6.75
2019-03-12T09:13:44.285Z,6.69
2019-03-12T09:14:44.251Z,6.66
2019-03-12T09:15:44.212Z,6.77
2019-03-12T09:16:44.163Z,6.69
2019-03-12T09:17:44.124Z,6.70
2019-03-12T09:18:44.081Z,6.69
2019-03-12T09:19:44.038Z,6.75
2019-03-12T09:20:43.999Z,6.77
2019-03-12T09:21:43.953Z,6.75
2019-03-12T09:22:43.918Z,6.72
2019-03-12T09:23:43.882Z,6.75
2019-03-12T09:24:43.834Z,6.81
2019-03-12T09:25:43.796Z,6.74
2019-03-12T09:26:43.743Z,6.87
2019-03-12T09:27:43.706Z,6.77
2019-03-12T09:28:43.663Z,6.93
2019-03-12T09:29:43.625Z,6.77
2019-03-12T09:30:43.578Z,6.77
2019-03-12T09:31:43.544Z,6.77
2019-03-12T09:32:43.495Z,6.88
2019-03-12T09:33:43.451Z,6.82
2019-03-12T09:34:43.415Z,6.84
2019-03-12T09:35:43.373Z,6.77
2019-03-12T09:36:43.331Z,6.79
2019-03-12T09:37:43.291Z,6.79
2019-03-12T09:38:43.243Z,6.84
2019-03-12T09:39:43.204Z,6.84
2019-03-12T09:40:43.163Z,6.85
2019-03-12T09:41:43.119Z,6.87
2019-03-12T09:42:43.083Z,6.88
2019-03-12T09:57:19.433Z,6.70
2019-03-12T09:58:19.339Z,6.78
2019-03-12T09:59:19.291Z,6.92
2019-03-12T10:00:19.252Z,6.84
2019-03-12T10:01:19.204Z,6.88
2019-03-12T10:02:19.161Z,6.82
2019-03-12T10:03:19.112Z,6.85
2019-03-12T10:04:19.128Z,6.87
2019-03-12T10:05:19.027Z,6.95
2019-03-12T10:06:18.988Z,6.96
2019-03-12T10:07:18.945Z,6.95
2019-03-12T10:08:18.905Z,6.97
2019-03-12T10:09:18.875Z,7.03
2019-03-12T10:10:18.814Z,7.00
2019-03-12T10:11:18.771Z,7.11
2019-03-12T10:12:18.726Z,7.11
2019-03-12T10:13:18.688Z,7.24
2019-03-12T10:14:18.646Z,7.20
2019-03-12T10:15:18.605Z,7.15
2019-03-12T10:16:18.557Z,7.20
2019-03-12T10:17:18.517Z,7.24
2019-03-12T10:18:18.481Z,7.23
2019-03-12T10:19:18.437Z,7.23
2019-03-12T10:20:18.404Z,7.33
2019-03-12T10:21:18.350Z,7.25
2019-03-12T10:22:18.307Z,7.23
2019-03-12T10:23:18.266Z,7.28
2019-03-12T10:24:18.237Z,7.32
2019-03-12T10:25:18.182Z,7.31
2019-03-12T10:26:18.142Z,7.33
2019-03-12T10:27:18.111Z,7.33
2019-03-12T10:28:18.062Z,7.40
2019-03-12T10:29:18.020Z,7.47
2019-03-12T10:30:17.973Z,7.48
2019-03-12T10:31:17.939Z,7.66
2019-03-12T10:32:17.895Z,7.56
2019-03-12T10:33:17.851Z,7.61
2019-03-12T10:34:28.874Z,7.60
2019-03-12T10:35:17.765Z,7.63
2019-03-12T10:36:17.820Z,7.75
2019-03-12T10:37:17.688Z,7.80
2019-03-12T10:38:17.649Z,7.80
2019-03-12T10:39:17.605Z,7.83
2019-03-12T10:40:17.565Z,7.93
2019-03-12T10:41:17.521Z,8.03
2019-03-12T10:42:17.483Z,7.97
2019-03-12T10:43:26.112Z,8.01
2019-03-12T10:45:21.883Z,7.94
2019-03-12T10:46:21.842Z,8.09
2019-03-12T10:47:21.772Z,8.09
2019-03-12T10:48:21.742Z,8.24
2019-03-12T10:49:21.710Z,8.19
2019-03-12T10:50:21.652Z,8.16
2019-03-12T10:51:21.613Z,8.23
2019-03-12T10:52:21.573Z,8.24
2019-03-12T10:53:21.530Z,8.26
2019-03-12T10:54:21.487Z,8.24
2019-03-12T10:55:21.446Z,8.27
2019-03-12T10:56:21.412Z,8.36
2019-03-12T10:57:21.684Z,8.36
2019-03-12T10:58:21.338Z,8.28
2019-03-12T10:59:21.281Z,8.30
2019-03-12T11:00:21.239Z,8.23
2019-03-12T11:01:21.202Z,8.24
2019-03-12T11:02:21.163Z,8.31
2019-03-12T11:03:21.126Z,8.33
2019-03-12T11:04:21.086Z,8.34
2019-03-12T11:05:21.045Z,8.46
2019-03-12T11:06:20.996Z,8.36
2019-03-12T11:07:20.955Z,8.41
2019-03-12T11:08:20.912Z,8.41
2019-03-12T11:09:20.876Z,8.36
2019-03-12T11:10:20.852Z,8.31
2019-03-12T11:11:20.796Z,8.33
2019-03-12T11:12:20.861Z,8.48
2019-03-12T11:13:20.714Z,8.48
2019-03-12T11:14:20.674Z,8.58
2019-03-12T11:15:20.635Z,8.66
2019-03-12T11:16:20.607Z,8.78
2019-03-12T11:17:20.554Z,8.71
2019-03-12T11:18:20.508Z,8.67
2019-03-12T11:19:20.466Z,8.74
2019-03-12T11:20:20.428Z,8.78
2019-03-12T11:21:20.387Z,8.74
2019-03-12T11:22:20.347Z,8.79
2019-03-12T11:23:20.308Z,8.78
2019-03-12T11:24:20.272Z,8.87
2019-03-12T11:25:27.068Z,8.85
2019-03-12T11:26:20.186Z,8.84
2019-03-12T11:27:20.140Z,8.85
2019-03-12T11:28:20.107Z,8.88
2019-03-12T11:29:20.067Z,9.04
2019-03-12T11:30:20.026Z,8.94
2019-03-12T11:31:19.986Z,9.08
2019-03-12T11:32:19.945Z,8.99
2019-03-12T11:33:19.935Z,9.08
2019-03-12T11:34:19.866Z,9.11
2019-03-12T11:35:19.826Z,9.10
2019-03-12T11:36:19.825Z,9.21
2019-03-12T11:37:19.769Z,9.25
2019-03-12T11:38:19.741Z,9.22
2019-03-12T11:39:19.662Z,9.21
2019-03-12T11:40:19.621Z,9.31
2019-03-12T11:41:19.582Z,9.21
2019-03-12T11:42:19.588Z,9.28
2019-03-12T11:43:19.509Z,9.23
2019-03-12T11:44:19.461Z,9.23
2019-03-12T11:45:20.690Z,9.08
2019-03-12T11:46:19.385Z,9.13
2019-03-12T11:47:19.343Z,9.16
2019-03-12T11:48:19.305Z,9.19
2019-03-12T11:49:19.276Z,9.13
2019-03-12T11:50:19.237Z,9.08
2019-03-12T11:51:19.181Z,9.08
2019-03-12T11:52:19.139Z,8.99
2019-03-12T11:53:19.100Z,8.94
2019-03-12T11:54:19.066Z,9.04
2019-03-12T11:55:19.059Z,9.04
2019-03-12T11:56:18.984Z,8.84
2019-03-12T11:57:18.957Z,8.92
2019-03-12T11:58:18.899Z,9.00
2019-03-12T11:59:18.861Z,9.03
2019-03-12T12:00:19.544Z,9.06
2019-03-12T12:01:18.781Z,9.04
2019-03-12T12:02:18.740Z,8.87
2019-03-12T12:03:18.696Z,8.89
2019-03-12T12:04:18.656Z,9.02
2019-03-12T12:05:18.621Z,9.03
2019-03-12T12:06:18.581Z,9.04
2019-03-12T12:07:18.544Z,9.06
2019-03-12T12:08:18.517Z,9.04
2019-03-12T12:09:18.464Z,9.06
2019-03-12T12:10:18.438Z,8.99
2019-03-12T12:11:18.378Z,8.89
2019-03-12T12:12:18.336Z,8.92
2019-03-12T12:13:18.306Z,8.89
2019-03-12T12:14:18.331Z,8.89
2019-03-12T12:15:18.241Z,8.94
2019-03-12T12:16:18.182Z,9.08
2019-03-12T12:17:18.138Z,9.08
2019-03-12T12:18:18.106Z,8.99
2019-03-12T12:19:18.067Z,9.06
2019-03-12T12:20:28.904Z,8.97
2019-03-12T12:21:18.046Z,8.94
2019-03-12T12:22:17.940Z,9.00
2019-03-12T12:23:17.912Z,9.03
2019-03-12T12:24:17.854Z,9.13
2019-03-12T12:25:17.820Z,9.18
2019-03-12T12:26:17.779Z,9.11
2019-03-12T12:27:17.739Z,9.21
2019-03-12T12:28:17.705Z,9.18
2019-03-12T12:29:17.671Z,9.16
2019-03-12T12:30:17.617Z,9.25
2019-03-12T12:31:17.574Z,9.25
2019-03-12T12:32:17.542Z,9.26
2019-03-12T12:33:17.501Z,9.26
2019-03-12T12:34:17.456Z,9.26
2019-03-12T12:35:17.417Z,9.31
2019-03-12T12:36:17.373Z,9.32
2019-03-12T12:37:17.337Z,9.37
2019-03-12T12:38:17.308Z,9.50
2019-03-12T12:39:17.260Z,9.44
2019-03-12T12:40:17.220Z,9.44
2019-03-12T12:41:17.177Z,9.51
2019-03-12T12:42:17.137Z,9.43
2019-03-12T12:43:17.093Z,9.59
2019-03-12T12:44:17.054Z,9.48
2019-03-12T12:45:17.016Z,9.39
2019-03-12T12:46:16.980Z,9.43
2019-03-12T12:47:16.941Z,9.51
2019-03-12T12:48:16.895Z,9.48
2019-03-12T12:49:16.860Z,9.61
2019-03-12T12:50:16.825Z,9.56
2019-03-12T12:51:16.782Z,9.55
2019-03-12T12:52:16.739Z,9.55
2019-03-12T12:53:16.697Z,9.64
2019-03-12T12:54:16.657Z,9.59
2019-03-12T12:55:16.611Z,9.56
2019-03-12T12:56:16.573Z,9.55
2019-03-12T12:57:16.537Z,9.55
2019-03-12T12:58:16.497Z,9.56
2019-03-12T12:59:16.471Z,9.59
2019-03-12T13:00:16.421Z,9.62
2019-03-12T13:01:16.384Z,9.64
2019-03-12T13:02:16.336Z,9.69
2019-03-12T13:03:16.293Z,9.62
2019-03-12T13:04:16.265Z,9.73
2019-03-12T13:05:16.217Z,9.69
2019-03-12T13:06:16.183Z,9.73
2019-03-12T13:07:16.136Z,9.69
2019-03-12T13:08:16.108Z,9.64
2019-03-12T13:09:16.061Z,9.68
2019-03-12T13:10:16.022Z,9.77
2019-03-12T13:11:15.987Z,9.80
2019-03-12T13:12:15.945Z,9.82
2019-03-12T13:13:15.904Z,9.82
2019-03-12T13:14:15.865Z,9.89
2019-03-12T13:15:15.818Z,9.87
2019-03-12T13:16:24.427Z,9.83
2019-03-12T13:17:15.743Z,9.84
2019-03-12T13:18:16.724Z,9.91
2019-03-12T13:19:15.694Z,9.87
2019-03-12T13:20:15.618Z,9.82
2019-03-12T13:21:15.581Z,9.86
2019-03-12T13:22:15.542Z,9.82
2019-03-12T13:23:15.505Z,9.79
2019-03-12T13:24:15.468Z,9.83
2019-03-12T13:25:15.423Z,9.80
2019-03-12T13:26:15.382Z,9.66
2019-03-12T13:27:15.338Z,9.73
2019-03-12T13:28:15.302Z,9.59
2019-03-12T13:29:15.260Z,9.68
2019-03-12T13:30:15.225Z,9.73
2019-03-12T13:31:15.190Z,9.72
2019-03-12T13:32:15.172Z,9.64
2019-03-12T13:33:15.106Z,9.73
2019-03-12T13:34:15.064Z,9.62
2019-03-12T13:35:15.035Z,9.66
2019-03-12T13:36:14.992Z,9.62
2019-03-12T13:37:14.945Z,9.66
2019-03-12T13:38:14.904Z,9.62
2019-03-12T13:39:14.895Z,9.59
2019-03-12T13:40:14.838Z,9.58
2019-03-12T13:41:15.100Z,9.55
2019-03-12T13:42:14.761Z,9.62
2019-03-12T13:43:14.707Z,9.66
2019-03-12T13:44:14.668Z,9.64
2019-03-12T13:45:14.833Z,9.68
2019-03-12T13:46:14.581Z,9.74
2019-03-12T13:47:14.539Z,9.72
2019-03-12T13:48:14.499Z,9.62
2019-03-12T13:49:14.461Z,9.64
2019-03-12T13:50:14.422Z,9.65